createdAt,value
2023-05-01T00:01:06.206Z,6.52
2023-05-01T00:03:33.424Z,6.58
2023-05-01T00:06:01.499Z,6.67
2023-05-01T00:08:27.995Z,6.75
2023-05-01T00:10:54.439Z,6.57
2023-05-01T00:13:21.962Z,6.64
2023-05-01T00:15:48.935Z,6.48
2023-05-01T00:18:15.866Z,6.52
2023-05-01T00:20:42.256Z,6.24
2023-05-01T00:23:08.684Z,6.24
2023-05-01T00:25:35.073Z,6.40
2023-05-01T00:28:01.570Z,6.34
2023-05-01T00:30:28.006Z,6.31
2023-05-01T00:32:54.522Z,6.29
2023-05-01T00:35:21.144Z,6.53
2023-05-01T00:37:48.025Z,6.58
2023-05-01T00:40:14.446Z,6.45
2023-05-01T00:42:40.944Z,6.12
2023-05-01T00:45:08.184Z,6.16
2023-05-01T00:47:38.891Z,6.35
2023-05-01T00:50:07.717Z,6.05
2023-05-01T00:52:34.457Z,6.06
2023-05-01T00:55:00.928Z,6.17
2023-05-01T00:57:27.522Z,6.19
2023-05-01T00:59:54.156Z,6.08
2023-05-01T01:02:20.759Z,5.96
2023-05-01T01:04:48.100Z,5.81
2023-05-01T01:07:41.726Z,5.83
2023-05-01T01:10:24.558Z,5.99
2023-05-01T01:13:01.768Z,5.62
2023-05-01T01:15:44.507Z,5.83
2023-05-01T01:18:40.207Z,5.90
2023-05-01T01:21:10.338Z,5.80
2023-05-01T01:24:11.148Z,5.83
2023-05-01T01:26:45.727Z,5.78
2023-05-01T01:29:36.668Z,5.69
2023-05-01T01:32:34.370Z,5.35
2023-05-01T01:35:06.598Z,5.59
2023-05-01T01:37:42.762Z,5.52
2023-05-01T01:40:23.814Z,5.54
2023-05-01T01:42:55.354Z,5.71
2023-05-01T01:45:23.984Z,5.82
2023-05-01T01:47:52.947Z,5.72
2023-05-01T01:50:22.547Z,5.45
2023-05-01T01:52:51.997Z,5.36
2023-05-01T01:55:25.452Z,5.37
2023-05-01T01:57:52.773Z,5.48
2023-05-01T02:00:20.602Z,5.60
2023-05-01T02:02:47.901Z,5.62
2023-05-01T02:05:17.965Z,5.43
2023-05-01T02:07:49.017Z,5.41
2023-05-01T02:10:16.194Z,5.67
2023-05-01T02:12:44.616Z,5.50
2023-05-01T02:15:12.126Z,5.44
2023-05-01T02:17:41.025Z,5.38
2023-05-01T02:20:10.491Z,5.30
2023-05-01T02:22:41.912Z,5.30
2023-05-01T02:25:13.692Z,5.13
2023-05-01T02:27:52.781Z,5.04
2023-05-01T02:30:19.320Z,4.93
2023-05-01T02:32:45.848Z,5.04
2023-05-01T02:35:12.293Z,4.93
2023-05-01T02:37:39.567Z,5.13
2023-05-01T02:40:07.470Z,5.16
2023-05-01T02:42:35.386Z,5.31
2023-05-01T02:45:05.645Z,5.29
2023-05-01T02:47:37.306Z,5.33
2023-05-01T02:50:04.464Z,5.37
2023-05-01T02:52:31.719Z,5.29
2023-05-01T02:54:58.452Z,5.09
2023-05-01T02:57:24.847Z,5.05
2023-05-01T02:59:51.412Z,5.05
2023-05-01T03:02:18.885Z,4.87
2023-05-01T03:04:45.338Z,5.11
2023-05-01T03:07:12.055Z,5.05
2023-05-01T03:09:38.609Z,4.93
2023-05-01T03:12:05.409Z,4.96
2023-05-01T03:14:31.848Z,4.98
2023-05-01T03:16:58.366Z,5.12
2023-05-01T03:19:24.791Z,4.88
2023-05-01T03:21:51.226Z,4.90
2023-05-01T03:24:17.595Z,4.80
2023-05-01T03:26:43.954Z,4.80
2023-05-01T03:29:10.854Z,4.77
2023-05-01T03:31:37.442Z,4.74
2023-05-01T03:34:03.807Z,4.92
2023-05-01T03:36:30.191Z,4.79
2023-05-01T03:38:56.627Z,4.75
2023-05-01T03:41:23.457Z,4.70
2023-05-01T03:43:50.453Z,4.67
2023-05-01T03:46:17.038Z,4.63
2023-05-01T03:48:43.516Z,4.66
2023-05-01T03:51:09.883Z,4.65
2023-05-01T03:53:36.930Z,4.62
2023-05-01T03:56:04.622Z,4.40
2023-05-01T03:58:31.186Z,4.51
2023-05-01T04:01:00.656Z,4.45
2023-05-01T04:03:27.417Z,4.36
2023-05-01T04:05:54.047Z,4.45
2023-05-01T04:08:20.448Z,4.46
2023-05-01T04:10:46.856Z,4.40
2023-05-01T04:13:13.404Z,4.53
2023-05-01T04:15:39.885Z,4.49
2023-05-01T04:18:06.290Z,4.64
2023-05-01T04:20:33.025Z,4.47
2023-05-01T04:22:59.389Z,4.48
2023-05-01T04:25:25.804Z,4.56
2023-05-01T04:27:52.330Z,4.62
2023-05-01T04:30:18.870Z,4.74
2023-05-01T04:32:45.522Z,4.70
2023-05-01T04:35:12.539Z,4.66
2023-05-01T04:37:39.024Z,4.65
2023-05-01T04:40:06.694Z,4.79
2023-05-01T04:42:33.789Z,4.81
2023-05-01T04:45:04.263Z,4.73
2023-05-01T04:47:31.028Z,4.73
2023-05-01T04:49:58.091Z,4.83
2023-05-01T04:52:24.674Z,4.88
2023-05-01T04:54:51.155Z,4.91
2023-05-01T04:57:17.571Z,4.98
2023-05-01T04:59:44.216Z,5.04
2023-05-01T05:02:11.040Z,5.29
2023-05-01T05:04:37.748Z,5.68
2023-05-01T05:07:04.185Z,5.82
2023-05-01T05:09:30.636Z,5.83
2023-05-01T05:11:57.092Z,6.17
2023-05-01T05:14:23.468Z,6.36
2023-05-01T05:16:50.025Z,6.37
2023-05-01T05:19:16.569Z,6.02
2023-05-01T05:21:43.004Z,6.10
2023-05-01T05:24:09.332Z,6.25
2023-05-01T05:26:35.762Z,6.26
2023-05-01T05:29:02.251Z,6.29
2023-05-01T05:31:28.969Z,6.45
2023-05-01T05:33:55.438Z,6.33
2023-05-01T05:36:21.791Z,6.33
2023-05-01T05:38:48.158Z,6.35
2023-05-01T05:41:14.797Z,6.44
2023-05-01T05:43:41.280Z,6.54
2023-05-01T05:46:07.704Z,6.60
2023-05-01T05:48:34.303Z,6.71
2023-05-01T05:51:00.746Z,6.77
2023-05-01T05:53:27.184Z,6.86
2023-05-01T05:55:54.151Z,6.96
2023-05-01T05:58:21.212Z,6.97
2023-05-01T06:00:48.482Z,7.02
2023-05-01T06:03:16.127Z,7.17
2023-05-01T06:05:43.712Z,7.27
2023-05-01T06:08:10.449Z,7.38
2023-05-01T06:10:37.475Z,7.49
2023-05-01T06:13:12.786Z,7.62
2023-05-01T06:15:41.735Z,7.65
2023-05-01T06:18:08.562Z,7.71
2023-05-01T06:20:35.166Z,7.83
2023-05-01T06:23:01.555Z,7.84
2023-05-01T06:25:27.915Z,7.95
2023-05-01T06:27:54.274Z,7.96
2023-05-01T06:30:21.930Z,8.03
2023-05-01T06:32:49.196Z,8.15
2023-05-01T06:35:16.163Z,8.12
2023-05-01T06:37:42.545Z,8.26
2023-05-01T06:40:09.826Z,8.25
2023-05-01T06:42:37.416Z,8.30
2023-05-01T06:45:04.082Z,8.32
2023-05-01T06:47:30.441Z,8.49
2023-05-01T06:49:58.108Z,8.56
2023-05-01T06:52:24.990Z,8.64
2023-05-01T06:54:51.611Z,8.81
2023-05-01T06:57:17.952Z,8.93
2023-05-01T06:59:44.354Z,9.07
2023-05-01T07:02:10.796Z,9.16
2023-05-01T07:04:37.183Z,9.31
2023-05-01T07:07:03.590Z,9.42
2023-05-01T07:09:30.254Z,9.59
2023-05-01T07:11:58.058Z,9.67
2023-05-01T07:14:24.725Z,9.87
2023-05-01T07:16:51.232Z,9.99
2023-05-01T07:19:18.021Z,10.21
2023-05-01T07:21:44.388Z,10.38
2023-05-01T07:24:12.248Z,10.52
2023-05-01T07:26:38.795Z,10.61
2023-05-01T07:29:05.502Z,10.73
2023-05-01T07:31:31.932Z,10.80
2023-05-01T07:33:58.296Z,10.86
2023-05-01T07:36:24.743Z,10.96
2023-05-01T07:38:51.073Z,11.04
2023-05-01T07:41:17.469Z,11.08
2023-05-01T07:43:43.820Z,11.04
2023-05-01T07:46:10.890Z,11.16
2023-05-01T07:48:38.948Z,11.13
2023-05-01T07:51:05.687Z,11.16
2023-05-01T07:53:33.020Z,11.23
2023-05-01T07:56:07.507Z,11.24
2023-05-01T07:58:34.363Z,11.32
2023-05-01T08:01:00.798Z,11.42
2023-05-01T08:03:31.216Z,11.54
2023-05-01T08:05:57.893Z,11.59
2023-05-01T08:08:24.723Z,11.76
2023-05-01T08:10:51.636Z,11.81
2023-05-01T08:13:18.465Z,11.90
2023-05-01T08:15:47.157Z,11.96
2023-05-01T08:18:19.673Z,12.03
2023-05-01T08:20:48.050Z,12.12
2023-05-01T08:23:18.479Z,12.20
2023-05-01T08:25:46.864Z,12.16
2023-05-01T08:28:16.685Z,12.32
2023-05-01T08:30:43.831Z,12.38
2023-05-01T08:33:10.536Z,12.44
2023-05-01T08:35:37.126Z,12.52
2023-05-01T08:38:03.528Z,12.66
2023-05-01T08:40:33.197Z,12.75
2023-05-01T08:43:01.355Z,12.97
2023-05-01T08:45:31.013Z,12.98
2023-05-01T08:48:02.930Z,12.99
2023-05-01T08:50:29.788Z,13.07
2023-05-01T08:52:58.523Z,13.12
2023-05-01T08:55:27.448Z,13.14
2023-05-01T08:57:55.081Z,13.07
2023-05-01T09:00:21.930Z,13.20
2023-05-01T09:02:49.827Z,13.31
2023-05-01T09:05:18.098Z,13.32
2023-05-01T09:07:49.355Z,13.28
2023-05-01T09:10:18.010Z,13.28
2023-05-01T09:12:49.122Z,13.40
2023-05-01T09:15:15.710Z,13.45
2023-05-01T09:17:42.738Z,13.51
2023-05-01T09:20:10.435Z,13.51
2023-05-01T09:22:37.034Z,13.60
2023-05-01T09:25:04.169Z,13.56
2023-05-01T09:27:37.638Z,13.60
2023-05-01T09:30:06.646Z,13.73
2023-05-01T09:32:33.633Z,13.79
2023-05-01T09:35:14.346Z,13.89
2023-05-01T09:37:41.323Z,13.83
2023-05-01T09:40:12.400Z,13.96
2023-05-01T09:42:50.746Z,13.83
2023-05-01T09:45:18.637Z,13.67
2023-05-01T09:47:46.572Z,13.75
2023-05-01T09:50:31.138Z,13.75
2023-05-01T09:52:57.671Z,13.88
2023-05-01T09:55:25.566Z,14.04
2023-05-01T09:57:53.028Z,14.04
2023-05-01T10:00:22.128Z,14.13
2023-05-01T10:02:49.965Z,14.10
2023-05-01T10:05:16.974Z,14.25
2023-05-01T10:08:05.766Z,14.40
2023-05-01T10:10:32.155Z,14.41
2023-05-01T10:13:14.341Z,14.50
2023-05-01T10:15:40.909Z,14.53
2023-05-01T10:18:10.255Z,14.39
2023-05-01T10:20:36.622Z,14.35
2023-05-01T10:23:05.816Z,14.44
2023-05-01T10:25:32.626Z,14.52
2023-05-01T10:28:02.885Z,14.53
2023-05-01T10:30:30.191Z,14.70
2023-05-01T10:32:57.729Z,14.72
2023-05-01T10:35:40.429Z,14.77
2023-05-01T10:38:11.474Z,14.86
2023-05-01T10:40:45.436Z,14.92
2023-05-01T10:43:17.305Z,15.11
2023-05-01T10:45:48.266Z,15.05
2023-05-01T10:48:39.568Z,15.17
2023-05-01T10:51:20.652Z,15.16
2023-05-01T10:53:48.767Z,15.32
2023-05-01T10:56:21.360Z,15.33
2023-05-01T10:58:58.821Z,15.39
2023-05-01T11:01:36.734Z,15.50
2023-05-01T11:04:27.514Z,15.45
2023-05-01T11:07:04.482Z,15.48
2023-05-01T11:09:45.487Z,15.64
2023-05-01T11:12:15.814Z,15.70
2023-05-01T11:14:54.726Z,15.84
2023-05-01T11:17:39.903Z,15.84
2023-05-01T11:20:10.651Z,15.93
2023-05-01T11:22:39.886Z,15.95
2023-05-01T11:25:22.379Z,16.02
2023-05-01T11:27:50.648Z,16.01
2023-05-01T11:30:17.142Z,16.07
2023-05-01T11:32:45.831Z,16.16
2023-05-01T11:35:21.989Z,16.12
2023-05-01T11:37:51.023Z,16.25
2023-05-01T11:40:27.297Z,16.27
2023-05-01T11:43:08.256Z,16.37
2023-05-01T11:45:36.839Z,16.40
2023-05-01T11:48:04.810Z,16.54
2023-05-01T11:50:33.956Z,16.62
2023-05-01T11:53:00.393Z,16.63
2023-05-01T11:55:34.762Z,16.61
2023-05-01T11:58:01.934Z,16.60
2023-05-01T12:00:30.127Z,16.67
2023-05-01T12:02:57.653Z,16.66
2023-05-01T12:05:25.875Z,16.63
2023-05-01T12:07:52.306Z,16.66
2023-05-01T12:10:19.129Z,16.77
2023-05-01T12:12:45.809Z,16.82
2023-05-01T12:15:12.269Z,16.81
2023-05-01T12:17:38.789Z,16.81
2023-05-01T12:20:06.057Z,16.75
2023-05-01T12:22:33.048Z,16.74
2023-05-01T12:25:00.860Z,16.88
2023-05-01T12:27:27.303Z,16.85
2023-05-01T12:29:54.909Z,16.98
2023-05-01T12:32:30.173Z,17.02
2023-05-01T12:34:57.055Z,17.06
2023-05-01T12:37:31.504Z,17.27
2023-05-01T12:39:58.027Z,17.31
2023-05-01T12:42:24.501Z,17.25
2023-05-01T12:44:59.409Z,17.20
2023-05-01T12:47:26.875Z,17.24
2023-05-01T12:50:02.962Z,17.32
2023-05-01T12:52:29.397Z,17.41
2023-05-01T12:55:04.739Z,17.59
2023-05-01T12:57:31.226Z,17.71
2023-05-01T13:00:05.079Z,17.84
2023-05-01T13:02:33.097Z,18.00
2023-05-01T13:05:10.977Z,18.12
2023-05-01T13:07:39.880Z,18.27
2023-05-01T13:10:06.951Z,18.32
2023-05-01T13:12:34.085Z,18.42
2023-05-01T13:15:00.699Z,18.44
2023-05-01T13:17:32.090Z,18.59
2023-05-01T13:20:00.903Z,18.61
2023-05-01T13:22:33.981Z,18.69
2023-05-01T13:25:03.014Z,18.70
2023-05-01T13:27:29.657Z,18.90
2023-05-01T13:29:58.904Z,19.05
2023-05-01T13:32:26.464Z,19.06
2023-05-01T13:34:54.186Z,18.99
2023-05-01T13:37:21.316Z,19.13
2023-05-01T13:39:47.942Z,19.27
2023-05-01T13:42:27.402Z,19.33
2023-05-01T13:44:55.713Z,19.44
2023-05-01T13:47:26.347Z,19.64
2023-05-01T13:49:52.998Z,19.75
2023-05-01T13:52:20.428Z,19.75
2023-05-01T13:54:48.434Z,19.68
2023-05-01T13:57:18.531Z,19.50
2023-05-01T13:59:46.811Z,19.66
2023-05-01T14:02:25.465Z,19.61
2023-05-01T14:04:51.941Z,19.59
2023-05-01T14:07:20.441Z,19.60
2023-05-01T14:09:54.045Z,19.64
2023-05-01T14:12:32.485Z,19.60
2023-05-01T14:15:00.712Z,19.53
2023-05-01T14:17:32.621Z,19.67
2023-05-01T14:19:59.336Z,19.75
2023-05-01T14:22:29.845Z,19.81
2023-05-01T14:24:57.758Z,19.83
2023-05-01T14:27:24.260Z,20.05
2023-05-01T14:29:50.809Z,20.27
2023-05-01T14:32:17.228Z,20.23
2023-05-01T14:34:43.613Z,20.31
2023-05-01T14:37:10.091Z,20.21
2023-05-01T14:39:36.462Z,20.31
2023-05-01T14:42:04.992Z,20.20
2023-05-01T14:44:31.365Z,20.14
2023-05-01T14:46:58.742Z,20.20
2023-05-01T14:49:26.727Z,19.87
2023-05-01T14:51:53.788Z,19.81
2023-05-01T14:54:21.096Z,19.76
2023-05-01T14:56:48.529Z,19.63
2023-05-01T14:59:15.607Z,19.60
2023-05-01T15:01:42.057Z,19.55
2023-05-01T15:04:09.125Z,19.39
2023-05-01T15:06:35.738Z,19.42
2023-05-01T15:09:02.668Z,19.28
2023-05-01T15:11:30.403Z,19.28
2023-05-01T15:13:56.887Z,19.23
2023-05-01T15:16:23.358Z,19.22
2023-05-01T15:18:49.726Z,19.21
2023-05-01T15:21:16.135Z,19.13
2023-05-01T15:23:45.100Z,19.17
2023-05-01T15:26:11.602Z,19.09
2023-05-01T15:28:38.000Z,19.04
2023-05-01T15:31:04.403Z,18.86
2023-05-01T15:33:30.789Z,18.86
2023-05-01T15:35:57.216Z,18.78
2023-05-01T15:38:24.071Z,18.84
2023-05-01T15:40:51.122Z,18.78
2023-05-01T15:43:17.555Z,18.80
2023-05-01T15:45:44.814Z,18.65
2023-05-01T15:48:11.946Z,18.64
2023-05-01T15:50:38.432Z,18.75
2023-05-01T15:53:04.812Z,18.70
2023-05-01T15:55:31.199Z,18.56
2023-05-01T15:57:57.588Z,18.50
2023-05-01T16:00:24.813Z,18.48
2023-05-01T16:02:51.446Z,18.41
2023-05-01T16:05:21.371Z,18.38
2023-05-01T16:07:55.116Z,18.39
2023-05-01T16:10:22.375Z,18.37
2023-05-01T16:12:50.558Z,18.34
2023-05-01T16:15:17.220Z,18.31
2023-05-01T16:17:45.585Z,18.35
2023-05-01T16:20:13.175Z,18.27
2023-05-01T16:22:41.207Z,18.36
2023-05-01T16:25:09.271Z,18.23
2023-05-01T16:27:39.655Z,18.16
2023-05-01T16:30:07.182Z,18.09
2023-05-01T16:32:34.795Z,18.03
2023-05-01T16:35:03.340Z,18.05
2023-05-01T16:37:29.890Z,17.95
2023-05-01T16:39:59.365Z,17.94
2023-05-01T16:42:26.193Z,17.93
2023-05-01T16:44:52.724Z,17.83
2023-05-01T16:47:19.079Z,17.83
2023-05-01T16:49:46.621Z,17.79
2023-05-01T16:52:15.491Z,17.83
2023-05-01T16:54:41.930Z,17.71
2023-05-01T16:57:08.296Z,17.72
2023-05-01T16:59:35.051Z,17.68
2023-05-01T17:02:01.497Z,17.62
2023-05-01T17:04:28.281Z,17.58
2023-05-01T17:06:56.024Z,17.55
2023-05-01T17:09:22.615Z,17.51
2023-05-01T17:11:48.959Z,17.55
2023-05-01T17:14:15.438Z,17.46
2023-05-01T17:16:42.027Z,17.48
2023-05-01T17:19:10.082Z,17.48
2023-05-01T17:21:36.528Z,17.43
2023-05-01T17:24:03.131Z,17.39
2023-05-01T17:26:29.484Z,17.34
2023-05-01T17:28:55.816Z,17.32
2023-05-01T17:31:22.852Z,17.29
2023-05-01T17:33:49.413Z,17.26
2023-05-01T17:36:15.838Z,17.24
2023-05-01T17:38:42.302Z,17.27
2023-05-01T17:41:08.660Z,17.25
2023-05-01T17:43:35.027Z,17.20
2023-05-01T17:46:01.655Z,17.16
2023-05-01T17:48:28.095Z,17.14
2023-05-01T17:50:55.777Z,17.10
2023-05-01T17:53:23.262Z,17.10
2023-05-01T17:55:49.668Z,17.06
2023-05-01T17:58:16.127Z,17.05
2023-05-01T18:00:42.521Z,17.03
2023-05-01T18:03:08.950Z,16.99
2023-05-01T18:05:35.497Z,16.99
2023-05-01T18:08:01.886Z,16.94
2023-05-01T18:10:31.094Z,16.95
2023-05-01T18:12:58.164Z,16.88
2023-05-01T18:15:24.662Z,16.82
2023-05-01T18:17:51.276Z,16.79
2023-05-01T18:20:17.805Z,16.86
2023-05-01T18:22:44.332Z,16.80
2023-05-01T18:25:11.202Z,16.77
2023-05-01T18:27:38.252Z,16.80
2023-05-01T18:30:05.218Z,16.75
2023-05-01T18:32:46.150Z,16.72
2023-05-01T18:35:14.638Z,16.75
2023-05-01T18:37:42.370Z,16.64
2023-05-01T18:40:09.738Z,16.58
2023-05-01T18:42:36.208Z,16.61
2023-05-01T18:45:03.938Z,16.68
2023-05-01T18:47:32.297Z,16.57
2023-05-01T18:49:59.152Z,16.55
2023-05-01T18:52:25.912Z,16.52
2023-05-01T18:54:52.313Z,16.70
2023-05-01T18:57:18.678Z,16.58
2023-05-01T18:59:45.261Z,16.51
2023-05-01T19:02:11.784Z,16.66
2023-05-01T19:04:49.195Z,16.56
2023-05-01T19:07:22.234Z,16.56
2023-05-01T19:09:48.591Z,16.48
2023-05-01T19:12:16.313Z,16.69
2023-05-01T19:14:42.770Z,16.54
2023-05-01T19:17:09.679Z,16.46
2023-05-01T19:19:36.154Z,16.36
2023-05-01T19:22:02.526Z,16.48
2023-05-01T19:24:28.970Z,16.40
2023-05-01T19:26:55.432Z,16.34
2023-05-01T19:29:21.809Z,16.40
2023-05-01T19:31:48.347Z,16.30
2023-05-01T19:34:14.721Z,16.30
2023-05-01T19:36:41.110Z,16.18
2023-05-01T19:39:07.504Z,16.17
2023-05-01T19:41:33.867Z,16.15
2023-05-01T19:44:00.844Z,16.10
2023-05-01T19:46:27.252Z,16.06
2023-05-01T19:48:53.657Z,16.04
2023-05-01T19:51:20.050Z,16.04
2023-05-01T19:53:46.987Z,16.02
2023-05-01T19:56:13.324Z,16.00
2023-05-01T19:58:39.665Z,15.98
2023-05-01T20:01:09.098Z,15.99
2023-05-01T20:03:35.632Z,15.98
2023-05-01T20:06:02.149Z,15.93
2023-05-01T20:08:28.722Z,15.89
2023-05-01T20:10:56.703Z,15.89
2023-05-01T20:13:23.116Z,15.84
2023-05-01T20:15:49.526Z,15.83
2023-05-01T20:18:16.710Z,15.82
2023-05-01T20:20:43.143Z,15.77
2023-05-01T20:23:14.088Z,15.75
2023-05-01T20:25:41.204Z,15.65
2023-05-01T20:28:10.089Z,15.61
2023-05-01T20:30:38.424Z,15.57
2023-05-01T20:33:05.197Z,15.52
2023-05-01T20:35:33.423Z,15.59
2023-05-01T20:38:00.891Z,15.56
2023-05-01T20:40:28.186Z,15.54
2023-05-01T20:42:55.331Z,15.56
2023-05-01T20:45:21.683Z,15.37
2023-05-01T20:47:51.478Z,15.42
2023-05-01T20:50:17.969Z,15.31
2023-05-01T20:52:45.167Z,15.02
2023-05-01T20:55:11.743Z,15.06
2023-05-01T20:57:40.097Z,15.01
2023-05-01T21:00:07.898Z,14.94
2023-05-01T21:02:37.440Z,14.94
2023-05-01T21:05:05.004Z,14.82
2023-05-01T21:07:31.535Z,14.77
2023-05-01T21:09:58.129Z,14.75
2023-05-01T21:12:24.714Z,14.71
2023-05-01T21:14:51.067Z,14.64
2023-05-01T21:17:18.200Z,14.54
2023-05-01T21:19:46.501Z,14.52
2023-05-01T21:22:18.417Z,14.50
2023-05-01T21:24:54.539Z,14.50
2023-05-01T21:27:22.151Z,14.47
2023-05-01T21:29:54.774Z,14.43
2023-05-01T21:32:33.428Z,14.30
2023-05-01T21:35:03.670Z,14.26
2023-05-01T21:37:30.257Z,14.23
2023-05-01T21:40:01.137Z,14.19
2023-05-01T21:42:35.637Z,14.24
2023-05-01T21:45:10.279Z,14.19
2023-05-01T21:47:39.011Z,14.14
2023-05-01T21:50:07.175Z,14.07
2023-05-01T21:52:35.082Z,14.17
2023-05-01T21:55:06.944Z,14.08
2023-05-01T21:57:37.911Z,14.14
2023-05-01T22:00:11.433Z,13.98
2023-05-01T22:02:43.710Z,13.88
2023-05-01T22:05:13.238Z,13.95
2023-05-01T22:07:41.117Z,13.87
2023-05-01T22:10:12.677Z,13.74
2023-05-01T22:12:40.241Z,13.85
2023-05-01T22:15:08.758Z,13.81
2023-05-01T22:17:36.373Z,13.74
2023-05-01T22:20:07.201Z,13.77
2023-05-01T22:22:34.301Z,13.73
2023-05-01T22:25:00.666Z,13.69
2023-05-01T22:27:27.098Z,13.75
2023-05-01T22:29:53.438Z,13.71
2023-05-01T22:32:19.866Z,13.67
2023-05-01T22:34:46.319Z,13.62
2023-05-01T22:37:12.672Z,13.91
2023-05-01T22:39:39.023Z,13.77
2023-05-01T22:42:05.702Z,13.72
2023-05-01T22:44:33.157Z,13.63
2023-05-01T22:46:59.872Z,13.60
2023-05-01T22:49:29.939Z,13.63
2023-05-01T22:51:57.198Z,13.60
2023-05-01T22:54:24.589Z,13.56
2023-05-01T22:56:51.661Z,13.55
2023-05-01T22:59:18.887Z,13.48
2023-05-01T23:01:45.736Z,13.67
2023-05-01T23:04:12.991Z,13.63
2023-05-01T23:06:40.119Z,13.53
2023-05-01T23:09:07.214Z,13.48
2023-05-01T23:11:34.741Z,13.40
2023-05-01T23:14:01.490Z,13.40
2023-05-01T23:16:37.579Z,13.42
2023-05-01T23:19:04.569Z,13.45
2023-05-01T23:21:31.487Z,13.49
2023-05-01T23:23:57.946Z,13.43
2023-05-01T23:26:30.920Z,13.33
2023-05-01T23:28:57.485Z,13.36
2023-05-01T23:31:26.332Z,13.37
2023-05-01T23:33:53.684Z,13.39
2023-05-01T23:36:20.889Z,13.51
2023-05-01T23:38:47.601Z,13.50
2023-05-01T23:41:15.213Z,13.41
2023-05-01T23:43:42.011Z,13.42
2023-05-01T23:46:08.625Z,13.40
2023-05-01T23:48:35.315Z,13.40
2023-05-01T23:51:02.670Z,13.39
2023-05-01T23:53:29.161Z,13.26
2023-05-01T23:55:55.599Z,13.26
2023-05-01T23:58:22.843Z,13.23
